createdAt,value
2024-04-22T00:00:42.997Z,1.60
2024-04-22T00:03:10.062Z,1.70
2024-04-22T00:05:42.365Z,1.50
2024-04-22T00:08:09.582Z,1.17
2024-04-22T00:10:39.342Z,1.77
2024-04-22T00:13:06.484Z,1.60
2024-04-22T00:15:36.035Z,1.50
2024-04-22T00:18:03.222Z,1.57
2024-04-22T00:20:32.836Z,1.50
2024-04-22T00:23:02.427Z,1.30
2024-04-22T00:25:32.166Z,1.47
2024-04-22T00:27:59.158Z,1.50
2024-04-22T00:30:28.738Z,1.40
2024-04-22T00:32:56.083Z,1.80
2024-04-22T00:35:25.679Z,1.50
2024-04-22T00:37:52.609Z,1.50
2024-04-22T00:40:25.298Z,1.50
2024-04-22T00:42:52.293Z,1.43
2024-04-22T00:45:22.285Z,1.60
2024-04-22T00:47:49.403Z,1.60
2024-04-22T00:50:19.685Z,1.57
2024-04-22T00:52:47.374Z,1.70
2024-04-22T00:55:17.326Z,1.57
2024-04-22T00:57:47.074Z,1.43
2024-04-22T01:00:16.952Z,1.47
2024-04-22T01:02:44.267Z,1.60
2024-04-22T01:05:13.986Z,1.57
2024-04-22T01:07:41.259Z,1.67
2024-04-22T01:10:11.836Z,1.70
2024-04-22T01:12:39.334Z,1.50
2024-04-22T01:15:11.801Z,1.57
2024-04-22T01:17:40.002Z,1.40
2024-04-22T01:20:11.330Z,1.73
2024-04-22T01:22:41.480Z,1.40
2024-04-22T01:25:12.359Z,1.50
2024-04-22T01:27:39.509Z,1.30
2024-04-22T01:30:11.203Z,1.57
2024-04-22T01:32:38.405Z,1.40
2024-04-22T01:35:08.662Z,1.67
2024-04-22T01:37:35.683Z,1.47
2024-04-22T01:40:09.878Z,1.50
2024-04-22T01:42:37.105Z,1.50
2024-04-22T01:45:07.290Z,1.47
2024-04-22T01:47:34.393Z,1.40
2024-04-22T01:50:04.136Z,1.27
2024-04-22T01:52:31.137Z,1.50
2024-04-22T01:55:00.748Z,1.53
2024-04-22T01:57:30.447Z,1.10
2024-04-22T02:00:00.062Z,1.40
2024-04-22T02:02:27.085Z,1.60
2024-04-22T02:04:56.944Z,1.50
2024-04-22T02:07:26.353Z,1.27
2024-04-22T02:10:03.298Z,1.70
2024-04-22T02:12:39.653Z,1.70
2024-04-22T02:15:09.869Z,1.53
2024-04-22T02:17:36.901Z,1.60
2024-04-22T02:20:07.218Z,1.60
2024-04-22T02:22:34.318Z,1.80
2024-04-22T02:25:03.961Z,1.53
2024-04-22T02:27:31.349Z,1.40
2024-04-22T02:30:03.680Z,1.40
2024-04-22T02:32:30.703Z,1.57
2024-04-22T02:35:00.384Z,1.30
2024-04-22T02:37:27.463Z,1.70
2024-04-22T02:39:57.112Z,1.27
2024-04-22T02:42:24.084Z,1.63
2024-04-22T02:44:53.821Z,1.53
2024-04-22T02:47:23.494Z,1.30
2024-04-22T02:49:53.122Z,1.53
2024-04-22T02:52:20.257Z,1.50
2024-04-22T02:54:51.329Z,1.70
2024-04-22T02:57:18.360Z,1.20
2024-04-22T02:59:48.052Z,1.83
2024-04-22T03:02:15.195Z,1.67
2024-04-22T03:04:51.587Z,1.80
2024-04-22T03:07:18.629Z,1.60
2024-04-22T03:09:48.271Z,1.50
2024-04-22T03:12:15.330Z,1.77
2024-04-22T03:14:45.125Z,1.63
2024-04-22T03:17:12.134Z,1.77
2024-04-22T03:19:41.908Z,1.73
2024-04-22T03:22:11.725Z,1.93
2024-04-22T03:24:41.465Z,1.53
2024-04-22T03:27:08.590Z,1.67
2024-04-22T03:29:38.272Z,1.73
2024-04-22T03:32:05.744Z,1.80
2024-04-22T03:34:35.546Z,1.70
2024-04-22T03:37:05.184Z,1.77
2024-04-22T03:39:37.668Z,1.63
2024-04-22T03:42:07.950Z,1.90
2024-04-22T03:44:37.581Z,1.40
2024-04-22T03:47:24.062Z,1.50
2024-04-22T03:49:57.781Z,1.67
2024-04-22T03:52:27.783Z,2.10
2024-04-22T03:55:00.018Z,1.60
2024-04-22T03:57:26.974Z,1.67
2024-04-22T03:59:56.954Z,1.80
2024-04-22T04:02:24.113Z,1.73
2024-04-22T04:04:53.906Z,1.37
2024-04-22T04:07:21.012Z,1.63
2024-04-22T04:09:50.603Z,1.47
2024-04-22T04:12:20.203Z,1.83
2024-04-22T04:14:50.097Z,1.80
2024-04-22T04:17:17.121Z,1.57
2024-04-22T04:19:46.759Z,1.30
2024-04-22T04:22:13.910Z,1.50
2024-04-22T04:24:43.546Z,1.80
2024-04-22T04:27:10.522Z,1.80
2024-04-22T04:29:42.901Z,1.97
2024-04-22T04:32:09.964Z,1.70
2024-04-22T04:34:39.657Z,1.60
2024-04-22T04:37:06.689Z,1.30
2024-04-22T04:39:36.310Z,1.50
2024-04-22T04:42:03.436Z,1.50
2024-04-22T04:44:33.075Z,1.60
2024-04-22T04:47:02.741Z,1.80
2024-04-22T04:49:32.362Z,1.67
2024-04-22T04:51:59.459Z,1.73
2024-04-22T04:54:29.047Z,2.17
2024-04-22T04:56:56.012Z,1.83
2024-04-22T04:59:25.724Z,2.27
2024-04-22T05:01:53.529Z,1.80
2024-04-22T05:04:26.032Z,1.80
2024-04-22T05:06:53.063Z,2.00
2024-04-22T05:09:22.794Z,1.90
2024-04-22T05:11:49.854Z,1.80
2024-04-22T05:14:19.479Z,1.97
2024-04-22T05:16:46.868Z,1.70
2024-04-22T05:19:16.910Z,2.37
2024-04-22T05:21:47.006Z,2.03
2024-04-22T05:24:19.715Z,2.00
2024-04-22T05:26:46.689Z,1.90
2024-04-22T05:29:16.505Z,2.03
2024-04-22T05:31:43.541Z,1.67
2024-04-22T05:34:28.799Z,2.00
2024-04-22T05:37:01.065Z,1.90
2024-04-22T05:39:32.031Z,1.97
2024-04-22T05:42:01.649Z,1.93
2024-04-22T05:44:28.673Z,1.70
2024-04-22T05:46:58.474Z,1.77
2024-04-22T05:49:28.915Z,2.33
2024-04-22T05:52:04.490Z,2.07
2024-04-22T05:54:35.719Z,1.83
2024-04-22T05:57:02.869Z,2.07
2024-04-22T05:59:32.487Z,1.90
2024-04-22T06:01:59.735Z,2.30
2024-04-22T06:04:31.018Z,2.37
2024-04-22T06:07:00.587Z,2.50
2024-04-22T06:09:30.160Z,2.30
2024-04-22T06:12:07.151Z,2.17
2024-04-22T06:14:44.479Z,2.30
2024-04-22T06:17:12.375Z,2.10
2024-04-22T06:19:42.453Z,1.83
2024-04-22T06:22:12.330Z,2.07
2024-04-22T06:24:42.245Z,2.40
2024-04-22T06:27:09.333Z,2.00
2024-04-22T06:29:38.991Z,2.67
2024-04-22T06:32:06.373Z,2.00
2024-04-22T06:34:36.186Z,1.80
2024-04-22T06:37:03.493Z,1.93
2024-04-22T06:39:37.999Z,1.97
2024-04-22T06:42:05.422Z,1.90
2024-04-22T06:44:35.041Z,1.97
2024-04-22T06:47:03.916Z,1.87
2024-04-22T06:49:34.185Z,1.90
2024-04-22T06:52:01.286Z,1.87
2024-04-22T06:54:30.985Z,2.13
2024-04-22T06:57:00.568Z,2.00
2024-04-22T06:59:30.288Z,1.50
2024-04-22T07:01:57.332Z,1.87
2024-04-22T07:04:27.146Z,1.50
2024-04-22T07:06:54.438Z,1.60
2024-04-22T07:09:24.151Z,1.47
2024-04-22T07:11:51.157Z,1.83
2024-04-22T07:14:23.689Z,1.80
2024-04-22T07:16:54.977Z,1.57
2024-04-22T07:19:25.550Z,1.93
2024-04-22T07:21:52.547Z,1.80
2024-04-22T07:24:22.802Z,1.40
2024-04-22T07:26:51.881Z,1.50
2024-04-22T07:29:24.885Z,1.77
2024-04-22T07:31:52.749Z,1.80
2024-04-22T07:34:22.995Z,2.87
2024-04-22T07:36:59.603Z,1.73
2024-04-22T07:39:29.655Z,0.93
2024-04-22T07:41:56.918Z,1.33
2024-04-22T07:44:29.420Z,1.00
2024-04-22T07:46:56.487Z,1.00
2024-04-22T07:49:26.162Z,1.37
2024-04-22T07:51:53.167Z,1.43
2024-04-22T07:54:24.021Z,1.03
2024-04-22T07:56:51.515Z,1.10
2024-04-22T07:59:22.638Z,1.30
2024-04-22T08:01:53.148Z,1.30
2024-04-22T08:04:23.410Z,1.40
2024-04-22T08:06:54.041Z,1.17
2024-04-22T08:09:25.434Z,1.13
2024-04-22T08:11:52.667Z,1.10
2024-04-22T08:14:22.261Z,1.10
2024-04-22T08:16:52.039Z,0.80
2024-04-22T08:19:21.747Z,1.00
2024-04-22T08:21:49.170Z,1.20
2024-04-22T08:24:18.813Z,1.27
2024-04-22T08:26:45.914Z,1.00
2024-04-22T08:29:15.505Z,1.00
2024-04-22T08:31:44.286Z,1.30
2024-04-22T08:34:16.641Z,1.23
2024-04-22T08:36:43.777Z,0.90
2024-04-22T08:39:13.391Z,0.90
2024-04-22T08:41:40.702Z,0.90
2024-04-22T08:44:12.243Z,0.80
2024-04-22T08:46:39.353Z,0.90
2024-04-22T08:49:10.557Z,0.90
2024-04-22T08:51:42.443Z,0.90
2024-04-22T08:54:13.040Z,0.97
2024-04-22T08:56:43.600Z,1.10
2024-04-22T08:59:18.610Z,1.10
2024-04-22T09:02:02.610Z,1.00
2024-04-22T09:04:30.004Z,1.10
2024-04-22T09:07:04.083Z,1.10
2024-04-22T09:09:42.383Z,1.30
2024-04-22T09:12:22.547Z,1.07
2024-04-22T09:14:59.465Z,1.20
2024-04-22T09:17:30.229Z,1.40
2024-04-22T09:19:57.543Z,1.30
2024-04-22T09:22:30.232Z,1.30
2024-04-22T09:24:57.374Z,1.40
2024-04-22T09:27:29.081Z,1.10
2024-04-22T09:30:01.997Z,1.40
2024-04-22T09:32:35.797Z,1.20
2024-04-22T09:35:14.227Z,1.03
2024-04-22T09:37:50.066Z,1.17
2024-04-22T09:40:19.181Z,1.07
2024-04-22T09:42:50.364Z,1.67
2024-04-22T09:45:17.947Z,1.53
2024-04-22T09:47:49.232Z,2.00
2024-04-22T09:50:18.460Z,1.50
2024-04-22T09:52:52.029Z,1.40
2024-04-22T09:55:19.439Z,1.60
2024-04-22T09:57:51.229Z,1.13
2024-04-22T10:00:19.046Z,1.60
2024-04-22T10:02:49.181Z,1.23
2024-04-22T10:05:17.333Z,1.27
2024-04-22T10:07:47.213Z,1.30
2024-04-22T10:10:19.541Z,1.30
2024-04-22T10:12:49.686Z,1.47
2024-04-22T10:15:17.718Z,1.10
2024-04-22T10:17:48.287Z,1.17
2024-04-22T10:20:16.521Z,1.00
2024-04-22T10:22:47.536Z,1.07
2024-04-22T10:25:22.166Z,1.10
2024-04-22T10:27:51.794Z,1.07
2024-04-22T10:30:18.826Z,1.30
2024-04-22T10:32:48.830Z,1.13
2024-04-22T10:35:16.924Z,1.20
2024-04-22T10:37:46.713Z,1.40
2024-04-22T10:40:16.546Z,1.00
2024-04-22T10:42:48.463Z,1.30
2024-04-22T10:45:17.041Z,1.17
2024-04-22T10:47:49.922Z,1.20
2024-04-22T10:50:22.212Z,0.80
2024-04-22T10:52:52.557Z,0.90
2024-04-22T10:55:22.793Z,0.90
2024-04-22T10:57:52.515Z,0.90
2024-04-22T11:00:19.593Z,0.93
2024-04-22T11:02:50.590Z,1.13
2024-04-22T11:05:18.619Z,1.37
2024-04-22T11:07:48.759Z,1.27
2024-04-22T11:10:23.069Z,1.30
2024-04-22T11:13:01.222Z,1.60
2024-04-22T11:15:28.177Z,0.80
2024-04-22T11:18:07.314Z,0.90
2024-04-22T11:20:34.397Z,0.90
2024-04-22T11:23:04.546Z,0.70
2024-04-22T11:25:31.659Z,0.80
2024-04-22T11:28:04.169Z,1.00
2024-04-22T11:30:31.349Z,1.10
2024-04-22T11:33:01.191Z,0.70
2024-04-22T11:35:28.485Z,1.20
2024-04-22T11:37:59.033Z,0.87
2024-04-22T11:40:26.124Z,1.13
2024-04-22T11:42:55.816Z,1.27
2024-04-22T11:45:25.400Z,1.00
2024-04-22T11:47:55.235Z,1.20
2024-04-22T11:50:22.745Z,1.10
2024-04-22T11:52:52.452Z,1.23
2024-04-22T11:55:19.613Z,1.07
2024-04-22T11:57:49.210Z,1.40
2024-04-22T12:00:16.481Z,1.20
2024-04-22T12:02:48.773Z,1.30
2024-04-22T12:05:15.903Z,1.20
2024-04-22T12:07:47.101Z,1.23
2024-04-22T12:10:14.602Z,1.23
2024-04-22T12:12:44.243Z,1.60
2024-04-22T12:15:13.383Z,1.40
2024-04-22T12:17:43.242Z,1.37
2024-04-22T12:20:13.589Z,1.20
2024-04-22T12:22:43.379Z,1.23
2024-04-22T12:25:10.916Z,1.27
2024-04-22T12:27:40.574Z,1.10
2024-04-22T12:30:10.704Z,1.10
2024-04-22T12:32:40.626Z,0.90
2024-04-22T12:35:07.931Z,1.00
2024-04-22T12:37:40.256Z,1.30
2024-04-22T12:40:09.205Z,1.50
2024-04-22T12:42:38.882Z,1.60
2024-04-22T12:45:06.646Z,1.30
2024-04-22T12:47:52.097Z,1.50
2024-04-22T12:50:37.806Z,1.30
2024-04-22T12:53:10.393Z,1.40
2024-04-22T12:55:40.255Z,1.53
2024-04-22T12:58:09.987Z,1.50
2024-04-22T13:00:39.822Z,1.10
2024-04-22T13:03:10.622Z,1.23
2024-04-22T13:05:37.642Z,1.33
2024-04-22T13:08:10.627Z,1.30
2024-04-22T13:10:40.773Z,1.70
2024-04-22T13:13:10.397Z,1.40
2024-04-22T13:15:40.058Z,1.47
2024-04-22T13:18:09.947Z,1.17
2024-04-22T13:20:39.893Z,1.50
2024-04-22T13:23:09.665Z,1.20
2024-04-22T13:25:39.689Z,1.37
2024-04-22T13:28:06.728Z,1.60
2024-04-22T13:30:37.961Z,1.33
2024-04-22T13:33:05.962Z,1.57
2024-04-22T13:35:35.758Z,1.90
2024-04-22T13:38:02.786Z,1.47
2024-04-22T13:40:35.659Z,1.60
2024-04-22T13:43:02.796Z,1.80
2024-04-22T13:45:32.442Z,1.40
2024-04-22T13:48:00.445Z,1.63
2024-04-22T13:50:30.166Z,1.50
2024-04-22T13:52:57.507Z,1.80
2024-04-22T13:55:27.279Z,1.93
2024-04-22T13:57:56.936Z,1.50
2024-04-22T14:00:26.509Z,1.83
2024-04-22T14:02:53.665Z,1.50
2024-04-22T14:05:23.383Z,2.00
2024-04-22T14:07:50.488Z,1.53
2024-04-22T14:10:20.372Z,1.70
2024-04-22T14:12:47.415Z,1.97
2024-04-22T14:15:19.809Z,2.20
2024-04-22T14:17:47.057Z,1.70
2024-04-22T14:20:16.840Z,2.20
2024-04-22T14:22:43.981Z,2.20
2024-04-22T14:25:13.806Z,2.07
2024-04-22T14:27:41.848Z,2.07
2024-04-22T14:30:12.738Z,1.87
2024-04-22T14:32:42.518Z,2.30
2024-04-22T14:35:12.184Z,2.20
2024-04-22T14:37:39.199Z,1.90
2024-04-22T14:40:10.148Z,2.37
2024-04-22T14:42:37.320Z,1.80
2024-04-22T14:45:08.100Z,1.67
2024-04-22T14:47:35.204Z,2.40
2024-04-22T14:50:07.835Z,2.07
2024-04-22T14:52:34.859Z,2.80
2024-04-22T14:55:08.414Z,2.80
2024-04-22T14:57:35.448Z,2.40
2024-04-22T15:00:05.776Z,2.30
2024-04-22T15:02:32.864Z,2.03
2024-04-22T15:05:06.290Z,2.17
2024-04-22T15:07:37.264Z,1.83
2024-04-22T15:10:07.790Z,2.20
2024-04-22T15:12:34.803Z,1.90
2024-04-22T15:15:04.646Z,2.30
2024-04-22T15:17:31.763Z,1.90
2024-04-22T15:20:01.679Z,1.50
2024-04-22T15:22:28.975Z,1.50
2024-04-22T15:25:03.006Z,1.20
2024-04-22T15:27:31.784Z,1.17
2024-04-22T15:30:03.064Z,1.50
2024-04-22T15:32:30.246Z,1.40
2024-04-22T15:35:00.026Z,2.00
2024-04-22T15:37:27.096Z,1.70
2024-04-22T15:39:56.877Z,1.73
2024-04-22T15:42:26.631Z,1.50
2024-04-22T15:44:56.305Z,1.07
2024-04-22T15:47:23.487Z,1.40
2024-04-22T15:49:53.444Z,1.30
2024-04-22T15:52:20.672Z,1.40
2024-04-22T15:54:53.684Z,1.30
2024-04-22T15:57:21.683Z,0.97
2024-04-22T16:00:01.878Z,1.30
2024-04-22T16:02:55.960Z,1.00
2024-04-22T16:05:25.839Z,1.10
2024-04-22T16:07:52.923Z,1.20
2024-04-22T16:10:22.641Z,1.40
2024-04-22T16:12:49.763Z,1.40
2024-04-22T16:15:22.397Z,1.30
2024-04-22T16:17:50.213Z,1.20
2024-04-22T16:20:20.039Z,1.57
2024-04-22T16:22:47.144Z,1.33
2024-04-22T16:25:16.818Z,1.27
2024-04-22T16:27:44.686Z,1.63
2024-04-22T16:30:15.549Z,1.17
2024-04-22T16:32:45.297Z,1.30
2024-04-22T16:35:15.046Z,0.97
2024-04-22T16:37:43.758Z,0.90
2024-04-22T16:40:14.528Z,0.80
2024-04-22T16:42:41.667Z,0.93
2024-04-22T16:45:11.474Z,0.90
2024-04-22T16:47:38.596Z,1.10
2024-04-22T16:50:11.304Z,1.20
2024-04-22T16:52:38.278Z,0.90
2024-04-22T16:55:08.792Z,1.03
2024-04-22T16:57:36.037Z,1.00
2024-04-22T17:00:05.751Z,1.10
2024-04-22T17:02:32.830Z,0.93
2024-04-22T17:05:02.552Z,0.80
2024-04-22T17:07:32.147Z,0.80
2024-04-22T17:10:02.205Z,1.10
2024-04-22T17:12:29.344Z,0.90
2024-04-22T17:14:58.884Z,0.80
2024-04-22T17:17:26.151Z,0.90
2024-04-22T17:19:55.980Z,0.97
2024-04-22T17:22:23.088Z,1.30
2024-04-22T17:24:55.348Z,0.97
2024-04-22T17:27:23.615Z,1.10
2024-04-22T17:29:53.504Z,1.00
2024-04-22T17:32:20.628Z,1.10
2024-04-22T17:34:50.773Z,1.00
2024-04-22T17:37:19.489Z,0.70
2024-04-22T17:39:49.333Z,0.90
2024-04-22T17:42:21.961Z,1.30
2024-04-22T17:44:52.367Z,1.20
2024-04-22T17:47:19.425Z,0.80
2024-04-22T17:49:49.402Z,0.80
2024-04-22T17:52:16.616Z,0.80
2024-04-22T17:54:49.656Z,0.80
2024-04-22T17:57:20.023Z,0.60
2024-04-22T17:59:49.821Z,0.60
2024-04-22T18:02:16.996Z,0.70
2024-04-22T18:04:46.916Z,0.80
2024-04-22T18:07:13.892Z,0.70
2024-04-22T18:09:44.438Z,0.80
2024-04-22T18:12:11.551Z,0.70
2024-04-22T18:14:46.953Z,0.63
2024-04-22T18:17:15.426Z,0.60
2024-04-22T18:19:45.426Z,0.80
2024-04-22T18:22:17.421Z,0.57
2024-04-22T18:24:50.842Z,0.73
2024-04-22T18:27:17.907Z,0.83
2024-04-22T18:29:50.188Z,0.60
2024-04-22T18:32:17.424Z,1.00
2024-04-22T18:34:47.343Z,0.73
2024-04-22T18:37:14.364Z,0.67
2024-04-22T18:39:44.284Z,0.70
2024-04-22T18:42:11.539Z,0.70
2024-04-22T18:44:41.343Z,0.70
2024-04-22T18:47:11.350Z,0.77
2024-04-22T18:49:41.753Z,1.40
2024-04-22T18:52:08.918Z,1.50
2024-04-22T18:54:38.770Z,1.50
2024-04-22T18:57:06.977Z,1.30
2024-04-22T18:59:37.489Z,1.20
2024-04-22T19:02:05.270Z,1.20
2024-04-22T19:04:37.646Z,1.53
2024-04-22T19:07:05.397Z,1.43
2024-04-22T19:09:35.217Z,1.10
2024-04-22T19:12:02.285Z,1.60
2024-04-22T19:14:31.991Z,1.63
2024-04-22T19:16:59.081Z,1.40
2024-04-22T19:19:28.826Z,1.00
2024-04-22T19:21:58.684Z,1.13
2024-04-22T19:24:28.324Z,0.93
2024-04-22T19:26:55.293Z,1.10
2024-04-22T19:29:24.991Z,1.00
2024-04-22T19:31:52.221Z,1.17
2024-04-22T19:34:21.934Z,1.00
2024-04-22T19:36:49.089Z,1.17
2024-04-22T19:39:23.523Z,2.10
2024-04-22T19:41:51.001Z,2.53
2024-04-22T19:44:20.630Z,1.70
2024-04-22T19:46:49.300Z,1.40
2024-04-22T19:49:19.141Z,1.30
2024-04-22T19:51:46.188Z,1.20
2024-04-22T19:54:15.941Z,1.17
2024-04-22T19:56:45.754Z,0.97
2024-04-22T19:59:15.520Z,1.00
2024-04-22T20:01:42.997Z,1.00
2024-04-22T20:04:13.629Z,0.80
2024-04-22T20:06:40.723Z,1.40
2024-04-22T20:09:10.430Z,1.50
2024-04-22T20:11:37.587Z,1.50
2024-04-22T20:14:09.839Z,1.13
2024-04-22T20:16:49.431Z,1.40
2024-04-22T20:19:23.250Z,1.40
2024-04-22T20:21:51.425Z,1.50
2024-04-22T20:24:21.422Z,1.57
2024-04-22T20:26:49.589Z,1.33
2024-04-22T20:29:22.165Z,1.03
2024-04-22T20:31:49.426Z,1.17
2024-04-22T20:34:19.248Z,1.10
2024-04-22T20:36:52.645Z,1.00
2024-04-22T20:39:22.878Z,1.10
2024-04-22T20:41:49.868Z,1.23
2024-04-22T20:44:22.379Z,1.20
2024-04-22T20:46:49.466Z,2.13
2024-04-22T20:49:24.665Z,2.20
2024-04-22T20:51:51.844Z,2.53
2024-04-22T20:54:22.509Z,2.70
2024-04-22T20:56:49.523Z,3.23
2024-04-22T20:59:19.413Z,3.23
2024-04-22T21:01:49.275Z,2.50
2024-04-22T21:04:19.578Z,1.70
2024-04-22T21:06:46.591Z,1.20
2024-04-22T21:09:16.299Z,1.30
2024-04-22T21:11:43.734Z,1.20
2024-04-22T21:14:13.404Z,1.03
2024-04-22T21:16:40.608Z,1.10
2024-04-22T21:19:20.460Z,1.40
2024-04-22T21:21:48.631Z,1.03
2024-04-22T21:24:18.268Z,1.00
2024-04-22T21:26:45.220Z,1.90
2024-04-22T21:29:18.913Z,2.40
2024-04-22T21:31:46.242Z,1.90
2024-04-22T21:34:21.673Z,1.50
2024-04-22T21:36:49.901Z,1.83
2024-04-22T21:39:20.825Z,1.73
2024-04-22T21:41:47.879Z,1.73
2024-04-22T21:44:17.455Z,1.17
2024-04-22T21:46:44.915Z,1.90
2024-04-22T21:49:14.786Z,1.17
2024-04-22T21:51:44.492Z,1.37
2024-04-22T21:54:14.718Z,1.00
2024-04-22T21:56:41.552Z,1.13
2024-04-22T21:59:48.801Z,1.30
2024-04-22T22:02:54.576Z,1.20
2024-04-22T22:06:01.807Z,0.97
2024-04-22T22:08:29.105Z,1.30
2024-04-22T22:11:01.773Z,1.37
2024-04-22T22:13:28.946Z,1.27
2024-04-22T22:15:59.441Z,1.13
2024-04-22T22:18:26.838Z,1.17
2024-04-22T22:20:56.606Z,1.40
2024-04-22T22:23:23.628Z,1.17
2024-04-22T22:25:53.327Z,1.30
2024-04-22T22:28:22.958Z,1.53
2024-04-22T22:30:52.660Z,1.30
2024-04-22T22:33:19.689Z,1.10
2024-04-22T22:35:49.343Z,1.37
2024-04-22T22:38:16.433Z,1.40
2024-04-22T22:40:46.080Z,1.47
2024-04-22T22:43:13.041Z,1.63
2024-04-22T22:45:45.284Z,1.53
2024-04-22T22:48:13.362Z,1.23
2024-04-22T22:50:43.005Z,1.20
2024-04-22T22:53:10.062Z,1.60
2024-04-22T22:55:39.756Z,1.20
2024-04-22T22:58:06.761Z,1.27
2024-04-22T23:00:36.387Z,1.30
2024-04-22T23:03:06.264Z,1.20
2024-04-22T23:05:36.389Z,1.17
2024-04-22T23:08:03.479Z,1.00
2024-04-22T23:10:33.139Z,1.50
2024-04-22T23:13:00.138Z,1.10
2024-04-22T23:15:30.318Z,1.13
2024-04-22T23:17:57.393Z,1.37
2024-04-22T23:20:30.159Z,1.30
2024-04-22T23:22:57.216Z,1.40
2024-04-22T23:25:27.022Z,1.30
2024-04-22T23:27:54.049Z,1.40
2024-04-22T23:30:23.668Z,1.20
2024-04-22T23:32:50.715Z,1.20
2024-04-22T23:35:20.311Z,1.27
2024-04-22T23:37:50.015Z,1.23
2024-04-22T23:40:19.616Z,1.50
2024-04-22T23:42:46.620Z,1.20
2024-04-22T23:45:16.478Z,1.60
2024-04-22T23:47:43.675Z,1.13
2024-04-22T23:50:13.526Z,1.50
2024-04-22T23:52:40.759Z,1.20
2024-04-22T23:55:13.025Z,1.40
2024-04-22T23:57:40.121Z,1.20
